createdAt,value
2017-08-01T00:00:48.643Z,82.90
2017-08-01T00:03:16.203Z,81.90
2017-08-01T00:05:43.781Z,80.80
2017-08-01T00:08:11.399Z,81.70
2017-08-01T00:10:38.942Z,81.70
2017-08-01T00:13:07.245Z,82.10
2017-08-01T00:15:34.809Z,82.00
2017-08-01T00:18:02.329Z,84.40
2017-08-01T00:20:29.895Z,82.90
2017-08-01T00:22:57.419Z,84.50
2017-08-01T00:25:24.981Z,85.40
2017-08-01T00:27:52.550Z,85.00
2017-08-01T00:30:20.068Z,86.20
2017-08-01T00:32:47.610Z,87.20
2017-08-01T00:35:15.138Z,85.90
2017-08-01T00:37:42.705Z,85.10
2017-08-01T00:40:10.241Z,86.00
2017-08-01T00:42:37.797Z,84.70
2017-08-01T00:45:05.385Z,85.60
2017-08-01T00:47:32.916Z,85.40
2017-08-01T00:50:00.443Z,86.20
2017-08-01T00:52:28.012Z,84.20
2017-08-01T00:54:55.532Z,86.80
2017-08-01T00:57:23.068Z,86.60
2017-08-01T00:59:50.653Z,84.10
2017-08-01T01:02:18.186Z,84.70
2017-08-01T01:04:45.752Z,86.40
2017-08-01T01:07:13.271Z,84.90
2017-08-01T01:09:40.817Z,85.00
2017-08-01T01:12:08.426Z,86.30
2017-08-01T01:14:35.957Z,88.10
2017-08-01T01:17:03.536Z,87.90
2017-08-01T01:19:31.059Z,85.40
2017-08-01T01:21:58.594Z,84.40
2017-08-01T01:24:26.152Z,82.50
2017-08-01T01:26:53.680Z,80.80
2017-08-01T01:29:21.222Z,80.60
2017-08-01T01:31:48.759Z,80.00
2017-08-01T01:34:16.317Z,79.70
2017-08-01T01:36:44.624Z,80.30
2017-08-01T01:39:12.185Z,80.10
2017-08-01T01:41:39.717Z,81.30
2017-08-01T01:44:08.013Z,80.60
2017-08-01T01:46:35.606Z,80.50
2017-08-01T01:49:03.129Z,80.80
2017-08-01T01:51:30.689Z,80.50
2017-08-01T01:53:58.245Z,80.30
2017-08-01T01:56:25.790Z,80.10
2017-08-01T01:58:54.085Z,79.40
2017-08-01T02:01:21.657Z,79.40
2017-08-01T02:03:49.176Z,79.10
2017-08-01T02:06:16.722Z,79.00
2017-08-01T02:08:44.274Z,79.00
2017-08-01T02:11:11.781Z,78.40
2017-08-01T02:13:39.329Z,77.70
2017-08-01T02:16:07.679Z,77.70
2017-08-01T02:18:35.209Z,77.60
2017-08-01T02:21:02.740Z,77.20
2017-08-01T02:23:30.282Z,77.20
2017-08-01T02:25:58.569Z,77.20
2017-08-01T02:28:26.906Z,77.60
2017-08-01T02:30:54.425Z,78.30
2017-08-01T02:33:21.966Z,77.40
2017-08-01T02:35:49.507Z,77.00
2017-08-01T02:38:17.037Z,76.60
2017-08-01T02:40:44.619Z,76.00
2017-08-01T02:43:12.146Z,75.60
2017-08-01T02:45:39.715Z,75.40
2017-08-01T02:48:07.249Z,75.00
2017-08-01T02:50:34.801Z,75.50
2017-08-01T02:53:02.396Z,75.20
2017-08-01T02:55:29.932Z,74.20
2017-08-01T02:57:57.463Z,74.00
2017-08-01T03:00:25.789Z,74.10
2017-08-01T03:02:53.309Z,73.50
2017-08-01T03:05:21.624Z,73.70
2017-08-01T03:07:49.166Z,73.60
2017-08-01T03:10:16.707Z,73.50
2017-08-01T03:12:44.280Z,73.20
2017-08-01T03:15:11.843Z,73.10
2017-08-01T03:17:39.381Z,72.90
2017-08-01T03:20:07.731Z,72.80
2017-08-01T03:22:35.261Z,72.70
2017-08-01T03:25:03.645Z,72.40
2017-08-01T03:27:31.262Z,71.70
2017-08-01T03:29:58.785Z,71.70
2017-08-01T03:32:26.358Z,71.20
2017-08-01T03:34:53.893Z,70.90
2017-08-01T03:37:21.412Z,70.50
2017-08-01T03:39:49.723Z,71.40
2017-08-01T03:42:17.293Z,71.30
2017-08-01T03:44:44.822Z,72.80
2017-08-01T03:47:12.361Z,73.50
2017-08-01T03:49:40.669Z,72.50
2017-08-01T03:52:08.233Z,72.40
2017-08-01T03:54:35.765Z,73.00
2017-08-01T03:57:04.062Z,73.00
2017-08-01T03:59:31.628Z,72.90
2017-08-01T04:01:59.178Z,72.80
2017-08-01T04:04:27.525Z,73.70
2017-08-01T04:06:55.838Z,74.50
2017-08-01T04:09:23.414Z,74.30
2017-08-01T04:11:51.360Z,74.00
2017-08-01T04:14:18.900Z,73.80
2017-08-01T04:16:46.505Z,73.60
2017-08-01T04:19:14.041Z,73.50
2017-08-01T04:21:42.371Z,73.10
2017-08-01T04:24:09.923Z,72.90
2017-08-01T04:26:37.449Z,73.90
2017-08-01T04:29:05.005Z,73.60
2017-08-01T04:31:32.529Z,74.00
2017-08-01T04:34:00.103Z,73.50
2017-08-01T04:36:27.675Z,73.40
2017-08-01T04:38:55.970Z,73.70
2017-08-01T04:41:23.510Z,73.60
2017-08-01T04:43:51.804Z,73.70
2017-08-01T04:46:20.123Z,73.90
2017-08-01T04:48:47.666Z,73.80
2017-08-01T04:51:15.185Z,75.50
2017-08-01T04:53:43.499Z,74.90
2017-08-01T04:56:11.025Z,74.20
2017-08-01T04:58:39.345Z,75.70
2017-08-01T05:01:06.896Z,75.00
2017-08-01T05:03:34.406Z,75.10
2017-08-01T05:06:01.951Z,75.40
2017-08-01T05:08:29.459Z,75.10
2017-08-01T05:10:57.011Z,74.30
2017-08-01T05:13:24.560Z,74.30
2017-08-01T05:15:52.844Z,74.30
2017-08-01T05:18:21.144Z,75.30
2017-08-01T05:20:48.741Z,75.30
2017-08-01T05:23:16.256Z,77.30
2017-08-01T05:25:43.775Z,75.30
2017-08-01T05:28:11.300Z,75.70
2017-08-01T05:30:38.805Z,72.20
2017-08-01T05:33:06.404Z,72.20
2017-08-01T05:35:33.927Z,71.00
2017-08-01T05:38:01.431Z,71.60
2017-08-01T05:40:28.966Z,71.80
2017-08-01T05:42:57.234Z,72.90
2017-08-01T05:45:25.526Z,74.20
2017-08-01T05:47:53.807Z,74.80
2017-08-01T05:50:21.311Z,74.80
2017-08-01T05:52:48.855Z,76.10
2017-08-01T05:55:16.374Z,75.70
2017-08-01T05:57:44.645Z,74.00
2017-08-01T06:00:12.948Z,74.70
2017-08-01T06:02:40.456Z,74.70
2017-08-01T06:05:07.982Z,74.60
2017-08-01T06:07:35.511Z,75.20
2017-08-01T06:10:03.796Z,75.10
2017-08-01T06:12:32.065Z,72.20
2017-08-01T06:15:00.349Z,69.00
2017-08-01T06:17:28.620Z,70.50
2017-08-01T06:19:58.055Z,70.50
2017-08-01T06:22:26.295Z,68.70
2017-08-01T06:24:54.583Z,69.10
2017-08-01T06:27:22.883Z,69.00
2017-08-01T06:29:50.391Z,68.90
2017-08-01T06:32:17.911Z,70.20
2017-08-01T06:34:45.415Z,72.30
2017-08-01T06:37:12.939Z,73.20
2017-08-01T06:39:40.444Z,72.10
2017-08-01T06:42:08.747Z,73.70
2017-08-01T06:44:36.250Z,74.10
2017-08-01T06:47:03.787Z,72.50
2017-08-01T06:49:31.287Z,71.70
2017-08-01T06:51:58.792Z,71.80
2017-08-01T06:54:26.321Z,67.50
2017-08-01T06:56:53.837Z,65.30
2017-08-01T06:59:21.410Z,67.10
2017-08-01T07:01:48.920Z,64.50
2017-08-01T07:04:16.439Z,68.10
2017-08-01T07:06:43.976Z,59.50
2017-08-01T07:09:11.521Z,60.20
2017-08-01T07:11:39.219Z,59.10
2017-08-01T07:14:06.747Z,58.20
2017-08-01T07:16:34.284Z,56.40
2017-08-01T07:19:01.803Z,58.40
2017-08-01T07:21:29.316Z,60.10
2017-08-01T07:32:56.068Z,58.50
2017-08-01T07:35:34.488Z,58.40
2017-08-01T07:38:02.152Z,60.30
2017-08-01T07:40:29.687Z,59.90
2017-08-01T07:42:57.199Z,60.90
2017-08-01T07:45:24.753Z,60.00
2017-08-01T07:47:52.342Z,59.50
2017-08-01T07:50:19.859Z,59.60
2017-08-01T07:52:47.367Z,60.10
2017-08-01T07:55:14.903Z,60.70
2017-08-01T07:57:42.427Z,59.90
2017-08-01T08:00:09.974Z,59.50
2017-08-01T08:02:37.494Z,58.80
2017-08-01T08:05:05.776Z,56.90
2017-08-01T08:07:33.295Z,56.90
2017-08-01T08:10:00.809Z,58.70
2017-08-01T08:12:28.376Z,57.10
2017-08-01T08:14:55.879Z,55.90
2017-08-01T08:17:23.396Z,53.20
2017-08-01T08:19:50.927Z,54.90
2017-08-01T08:22:18.459Z,55.40
2017-08-01T08:24:46.757Z,53.90
2017-08-01T08:27:14.288Z,53.90
2017-08-01T08:29:41.854Z,57.40
2017-08-01T08:32:09.380Z,56.10
2017-08-01T08:34:36.887Z,54.60
2017-08-01T08:37:04.423Z,54.50
2017-08-01T08:39:32.703Z,55.70
2017-08-01T08:42:00.263Z,55.60
2017-08-01T08:44:27.792Z,54.00
2017-08-01T08:46:55.309Z,56.60
2017-08-01T08:49:22.894Z,55.60
2017-08-01T08:51:50.404Z,53.50
2017-08-01T08:54:17.926Z,55.90
2017-08-01T08:56:45.527Z,55.80
2017-08-01T08:59:13.040Z,55.20
2017-08-01T09:01:40.588Z,53.80
2017-08-01T09:04:08.127Z,55.20
2017-08-01T09:06:35.643Z,54.80
2017-08-01T09:09:03.175Z,52.60
2017-08-01T09:11:30.699Z,54.10
2017-08-01T09:13:58.223Z,51.30
2017-08-01T09:16:25.796Z,51.80
2017-08-01T09:18:53.300Z,49.50
2017-08-01T09:21:20.815Z,49.80
2017-08-01T09:23:48.348Z,49.80
2017-08-01T09:26:15.862Z,52.30
2017-08-01T09:28:43.414Z,54.20
2017-08-01T09:31:10.944Z,51.50
2017-08-01T09:33:38.464Z,50.40
2017-08-01T09:36:06.767Z,51.40
2017-08-01T09:38:34.279Z,51.30
2017-08-01T09:41:01.841Z,53.50
2017-08-01T09:43:30.133Z,52.10
2017-08-01T09:45:57.645Z,52.00
2017-08-01T09:48:25.204Z,50.20
2017-08-01T09:50:52.716Z,51.10
2017-08-01T09:53:20.232Z,50.90
2017-08-01T09:55:47.773Z,51.30
2017-08-01T09:58:15.282Z,51.50
2017-08-01T10:00:42.814Z,48.80
2017-08-01T10:03:10.366Z,50.00
2017-08-01T10:05:37.894Z,49.60
2017-08-01T10:08:05.448Z,47.70
2017-08-01T10:10:32.968Z,48.50
2017-08-01T10:13:00.473Z,47.60
2017-08-01T10:15:28.004Z,47.50
2017-08-01T10:17:55.521Z,51.20
2017-08-01T10:20:23.837Z,48.80
2017-08-01T10:22:51.354Z,48.80
2017-08-01T10:25:18.913Z,48.10
2017-08-01T10:27:46.461Z,46.80
2017-08-01T10:30:13.971Z,48.70
2017-08-01T10:32:41.555Z,48.50
2017-08-01T10:35:09.100Z,45.60
2017-08-01T10:37:36.618Z,46.50
2017-08-01T10:40:04.167Z,45.20
2017-08-01T10:42:31.684Z,46.70
2017-08-01T10:44:59.196Z,45.10
2017-08-01T10:47:26.747Z,45.10
2017-08-01T10:49:54.257Z,45.10
2017-08-01T10:52:21.792Z,47.00
2017-08-01T10:54:49.314Z,43.50
2017-08-01T10:57:16.875Z,47.30
2017-08-01T10:59:44.387Z,44.00
2017-08-01T11:02:11.900Z,45.60
2017-08-01T11:04:39.426Z,45.70
2017-08-01T11:07:06.929Z,46.50
2017-08-01T11:09:34.480Z,43.80
2017-08-01T11:12:02.000Z,44.90
2017-08-01T11:14:29.523Z,45.00
2017-08-01T11:16:57.059Z,49.00
2017-08-01T11:19:24.567Z,44.20
2017-08-01T11:21:52.875Z,43.90
2017-08-01T11:24:20.387Z,43.90
2017-08-01T11:26:47.917Z,46.40
2017-08-01T11:29:15.445Z,44.80
2017-08-01T11:31:42.963Z,46.10
2017-08-01T11:34:10.523Z,45.00
2017-08-01T11:36:38.036Z,41.50
2017-08-01T11:39:05.539Z,41.30
2017-08-01T11:41:33.067Z,42.00
2017-08-01T11:44:00.581Z,41.00
2017-08-01T11:46:28.141Z,39.00
2017-08-01T11:48:55.671Z,40.60
2017-08-01T11:51:23.196Z,40.70
2017-08-01T11:53:50.755Z,46.70
2017-08-01T11:56:18.275Z,45.10
2017-08-01T11:58:45.787Z,45.30
2017-08-01T12:01:13.340Z,43.00
2017-08-01T12:03:40.843Z,43.30
2017-08-01T12:06:08.364Z,41.50
2017-08-01T12:08:35.954Z,41.10
2017-08-01T12:11:03.468Z,42.00
2017-08-01T12:13:31.041Z,42.10
2017-08-01T12:15:58.595Z,42.70
2017-08-01T12:18:26.142Z,39.30
2017-08-01T12:20:53.686Z,40.50
2017-08-01T12:23:21.204Z,40.00
2017-08-01T12:25:48.735Z,40.50
2017-08-01T12:28:16.248Z,40.30
2017-08-01T12:30:43.796Z,41.50
2017-08-01T12:33:11.326Z,40.50
2017-08-01T12:35:38.858Z,43.80
2017-08-01T12:38:06.368Z,40.70
2017-08-01T12:40:33.875Z,42.70
2017-08-01T12:43:02.176Z,41.90
2017-08-01T12:45:29.704Z,42.50
2017-08-01T12:47:57.263Z,42.90
2017-08-01T12:50:24.784Z,44.70
2017-08-01T12:52:52.322Z,42.10
2017-08-01T12:55:19.827Z,42.40
2017-08-01T12:57:47.413Z,41.90
2017-08-01T13:00:14.935Z,42.30
2017-08-01T13:02:42.448Z,43.40
2017-08-01T13:05:09.975Z,45.50
2017-08-01T13:07:37.488Z,43.20
2017-08-01T13:10:05.011Z,43.90
2017-08-01T13:12:32.520Z,43.70
2017-08-01T13:15:00.064Z,44.00
2017-08-01T13:17:27.604Z,45.50
2017-08-01T13:19:55.136Z,43.60
2017-08-01T13:22:22.648Z,43.70
2017-08-01T13:24:50.208Z,42.40
2017-08-01T13:27:17.723Z,42.30
2017-08-01T13:29:45.234Z,43.40
2017-08-01T13:32:12.756Z,41.40
2017-08-01T13:34:40.267Z,42.30
2017-08-01T13:37:08.584Z,42.60
2017-08-01T13:39:36.108Z,43.00
2017-08-01T13:42:03.625Z,43.30
2017-08-01T13:44:31.276Z,42.40
2017-08-01T13:46:58.791Z,42.70
2017-08-01T13:49:26.331Z,41.90
2017-08-01T13:51:53.847Z,40.50
2017-08-01T13:54:21.387Z,41.80
2017-08-01T13:56:48.888Z,46.00
2017-08-01T13:59:16.436Z,43.90
2017-08-01T14:01:43.988Z,44.50
2017-08-01T14:04:11.527Z,44.60
2017-08-01T14:06:39.040Z,43.40
2017-08-01T14:09:06.600Z,41.00
2017-08-01T14:11:34.112Z,41.00
2017-08-01T14:14:01.623Z,42.70
2017-08-01T14:16:29.171Z,43.60
2017-08-01T14:18:56.719Z,42.90
2017-08-01T14:21:25.067Z,43.60
2017-08-01T14:23:52.582Z,43.60
2017-08-01T14:26:20.103Z,43.50
2017-08-01T14:28:47.643Z,41.70
2017-08-01T14:31:15.166Z,41.00
2017-08-01T14:33:42.704Z,41.30
2017-08-01T14:36:10.231Z,41.30
2017-08-01T14:38:37.783Z,40.90
2017-08-01T14:41:06.078Z,42.10
2017-08-01T14:43:33.596Z,42.00
2017-08-01T14:46:01.127Z,43.00
2017-08-01T14:48:28.684Z,43.40
2017-08-01T14:50:56.196Z,42.40
2017-08-01T14:53:23.737Z,42.30
2017-08-01T14:55:51.247Z,43.00
2017-08-01T14:58:18.808Z,43.70
2017-08-01T15:00:46.311Z,42.70
2017-08-01T15:03:13.824Z,42.20
2017-08-01T15:05:41.359Z,43.50
2017-08-01T15:08:08.883Z,44.10
2017-08-01T15:10:37.201Z,43.40
2017-08-01T15:13:04.712Z,43.60
2017-08-01T15:15:32.234Z,43.40
2017-08-01T15:18:00.315Z,44.40
2017-08-01T15:20:27.864Z,44.70
2017-08-01T15:22:55.402Z,43.80
2017-08-01T15:25:22.914Z,44.60
2017-08-01T15:27:50.438Z,44.20
2017-08-01T15:30:17.953Z,44.40
2017-08-01T15:32:45.505Z,44.40
2017-08-01T15:35:13.028Z,44.30
2017-08-01T15:37:40.583Z,44.00
2017-08-01T15:40:08.106Z,43.70
2017-08-01T15:42:35.632Z,44.10
2017-08-01T15:45:03.164Z,43.20
2017-08-01T15:47:30.728Z,43.30
2017-08-01T15:49:59.035Z,43.50
2017-08-01T15:52:26.555Z,42.80
2017-08-01T15:54:54.119Z,43.60
2017-08-01T15:57:21.640Z,43.80
2017-08-01T15:59:49.161Z,44.30
2017-08-01T16:02:16.715Z,44.70
2017-08-01T16:04:44.245Z,44.80
2017-08-01T16:07:11.779Z,45.10
2017-08-01T16:09:39.308Z,45.50
2017-08-01T16:12:06.817Z,46.20
2017-08-01T16:14:34.403Z,47.00
2017-08-01T16:17:01.909Z,46.30
2017-08-01T16:19:29.420Z,47.00
2017-08-01T16:21:56.951Z,46.90
2017-08-01T16:24:25.240Z,46.80
2017-08-01T16:26:52.800Z,46.70
2017-08-01T16:29:21.071Z,47.60
2017-08-01T16:31:48.580Z,47.50
2017-08-01T16:34:16.136Z,47.50
2017-08-01T16:36:43.660Z,47.40
2017-08-01T16:39:11.176Z,46.80
2017-08-01T16:41:38.713Z,46.60
2017-08-01T16:44:06.260Z,46.80
2017-08-01T16:46:33.782Z,46.80
2017-08-01T16:49:01.287Z,46.80
2017-08-01T16:51:28.844Z,46.90
2017-08-01T16:53:56.356Z,47.30
2017-08-01T16:56:23.875Z,48.10
2017-08-01T16:58:51.403Z,47.90
2017-08-01T17:01:18.912Z,48.70
2017-08-01T17:03:46.452Z,47.90
2017-08-01T17:06:14.736Z,49.60
2017-08-01T17:08:42.292Z,49.00
2017-08-01T17:11:10.580Z,50.30
2017-08-01T17:13:38.092Z,50.30
2017-08-01T17:16:05.615Z,50.50
2017-08-01T17:18:33.123Z,50.60
2017-08-01T17:21:00.664Z,51.80
2017-08-01T17:23:28.177Z,55.40
2017-08-01T17:25:55.729Z,57.10
2017-08-01T17:28:23.252Z,58.00
2017-08-01T17:30:50.808Z,58.70
2017-08-01T17:33:18.316Z,58.10
2017-08-01T17:35:45.827Z,59.20
2017-08-01T17:38:13.352Z,60.30
2017-08-01T17:40:40.893Z,62.00
2017-08-01T17:43:08.449Z,61.40
2017-08-01T17:45:35.963Z,60.70
2017-08-01T17:48:04.244Z,58.50
2017-08-01T17:50:31.783Z,58.40
2017-08-01T17:52:59.311Z,58.70
2017-08-01T17:55:26.858Z,60.30
2017-08-01T17:57:54.366Z,60.60
2017-08-01T18:00:22.671Z,59.20
2017-08-01T18:02:50.197Z,59.10
2017-08-01T18:05:17.752Z,59.50
2017-08-01T18:07:45.261Z,62.30
2017-08-01T18:10:12.768Z,68.90
2017-08-01T18:12:41.081Z,72.50
2017-08-01T18:15:08.604Z,71.80
2017-08-01T18:17:36.143Z,73.10
2017-08-01T18:20:03.667Z,73.90
2017-08-01T18:22:31.204Z,71.60
2017-08-01T18:25:09.252Z,67.10
2017-08-01T18:27:36.771Z,66.90
2017-08-01T18:30:04.288Z,64.80
2017-08-01T18:32:31.815Z,60.60
2017-08-01T18:34:59.331Z,63.90
2017-08-01T18:37:26.863Z,68.90
2017-08-01T18:39:55.140Z,71.60
2017-08-01T18:42:23.447Z,73.20
2017-08-01T18:44:50.979Z,73.20
2017-08-01T18:47:19.256Z,76.60
2017-08-01T18:49:46.790Z,76.20
2017-08-01T18:52:14.307Z,73.70
2017-08-01T18:54:41.845Z,74.10
2017-08-01T18:57:09.377Z,74.80
2017-08-01T18:59:37.703Z,78.50
2017-08-01T19:02:05.256Z,78.50
2017-08-01T19:04:32.836Z,82.00
2017-08-01T19:07:00.359Z,85.10
2017-08-01T19:09:27.888Z,88.10
2017-08-01T19:11:56.186Z,89.30
2017-08-01T19:14:23.721Z,89.10
2017-08-01T19:16:51.238Z,89.90
2017-08-01T19:19:18.805Z,88.70
2017-08-01T19:21:46.334Z,89.10
2017-08-01T19:24:13.851Z,86.40
2017-08-01T19:26:41.401Z,87.00
2017-08-01T19:29:09.671Z,89.40
2017-08-01T19:31:37.253Z,89.70
2017-08-01T19:34:05.015Z,90.40
2017-08-01T19:36:32.577Z,90.00
2017-08-01T19:39:00.158Z,90.90
2017-08-01T19:41:27.692Z,90.40
2017-08-01T19:43:55.333Z,91.20
2017-08-01T19:46:23.702Z,92.30
2017-08-01T19:48:51.329Z,92.20
2017-08-01T19:51:18.965Z,92.20
2017-08-01T19:53:46.549Z,93.60
2017-08-01T19:56:14.144Z,93.40
2017-08-01T19:58:41.698Z,92.60
2017-08-01T20:01:09.380Z,92.60
2017-08-01T20:03:36.920Z,92.90
2017-08-01T20:06:05.296Z,93.40
2017-08-01T20:08:33.660Z,93.70
2017-08-01T20:11:01.243Z,93.70
2017-08-01T20:13:28.851Z,94.10
2017-08-01T20:15:56.452Z,94.80
2017-08-01T20:18:25.252Z,94.20
2017-08-01T20:20:52.880Z,93.80
2017-08-01T20:23:20.437Z,94.20
2017-08-01T20:25:47.975Z,94.10
2017-08-01T20:28:15.614Z,94.30
2017-08-01T20:30:43.151Z,94.90
2017-08-01T20:33:10.747Z,94.30
2017-08-01T20:35:39.241Z,94.10
2017-08-01T20:38:07.642Z,93.60
2017-08-01T20:40:35.202Z,93.50
2017-08-01T20:43:02.844Z,94.30
2017-08-01T20:45:32.996Z,94.60
2017-08-01T20:48:00.589Z,94.60
2017-08-01T20:50:31.726Z,94.60
2017-08-01T20:52:59.290Z,94.20
2017-08-01T20:55:26.948Z,94.40
2017-08-01T20:57:54.501Z,94.60
2017-08-01T21:00:22.079Z,94.80
2017-08-01T21:02:49.644Z,95.30
2017-08-01T21:05:17.243Z,95.30
2017-08-01T21:07:44.844Z,95.10
2017-08-01T21:10:12.391Z,95.20
2017-08-01T21:12:39.971Z,95.50
2017-08-01T21:15:07.547Z,95.30
2017-08-01T21:17:35.144Z,96.50
2017-08-01T21:20:02.676Z,96.20
2017-08-01T21:22:30.232Z,96.40
2017-08-01T21:24:57.792Z,95.70
2017-08-01T21:27:25.315Z,95.10
2017-08-01T21:29:52.885Z,95.50
2017-08-01T21:32:20.404Z,95.70
2017-08-01T21:34:47.956Z,95.80
2017-08-01T21:37:15.468Z,96.40
2017-08-01T21:39:43.019Z,94.80
2017-08-01T21:42:10.552Z,96.00
2017-08-01T21:44:38.075Z,95.60
2017-08-01T21:47:05.618Z,96.60
2017-08-01T21:49:33.204Z,96.40
2017-08-01T21:52:00.779Z,97.30
2017-08-01T21:54:28.324Z,96.80
2017-08-01T21:56:55.871Z,95.00
2017-08-01T21:59:23.419Z,96.00
2017-08-01T22:01:50.957Z,96.70
2017-08-01T22:04:18.533Z,96.10
2017-08-01T22:06:46.061Z,96.00
2017-08-01T22:09:14.400Z,95.30
2017-08-01T22:11:41.974Z,95.30
2017-08-01T22:14:09.491Z,95.10
2017-08-01T22:16:37.028Z,95.50
2017-08-01T22:19:05.327Z,95.70
2017-08-01T22:21:32.921Z,95.60
2017-08-01T22:24:00.462Z,94.90
2017-08-01T22:26:27.987Z,95.80
2017-08-01T22:28:55.540Z,96.60
2017-08-01T22:31:23.836Z,96.40
2017-08-01T22:33:51.403Z,96.40
2017-08-01T22:36:18.923Z,96.80
2017-08-01T22:38:46.452Z,96.90
2017-08-01T22:41:13.982Z,97.00
2017-08-01T22:43:41.501Z,96.90
2017-08-01T22:46:09.057Z,96.70
2017-08-01T22:48:36.612Z,96.50
2017-08-01T22:51:04.349Z,97.30
2017-08-01T22:53:31.943Z,97.00
2017-08-01T22:55:59.495Z,96.90
2017-08-01T22:58:27.030Z,97.50
2017-08-01T23:00:54.563Z,96.70
2017-08-01T23:03:22.123Z,96.60
2017-08-01T23:05:49.639Z,96.80
2017-08-01T23:08:17.155Z,97.00
2017-08-01T23:10:44.693Z,97.80
2017-08-01T23:13:12.300Z,97.60
2017-08-01T23:15:39.846Z,97.50
2017-08-01T23:18:07.371Z,97.10
2017-08-01T23:20:34.919Z,96.60
2017-08-01T23:23:02.437Z,96.40
2017-08-01T23:25:29.988Z,96.70
2017-08-01T23:27:57.571Z,96.20
2017-08-01T23:30:25.160Z,96.60
2017-08-01T23:32:52.706Z,96.60
2017-08-01T23:35:20.220Z,96.80
2017-08-01T23:37:48.563Z,97.00
2017-08-01T23:40:16.128Z,97.00
2017-08-01T23:42:43.687Z,95.80
2017-08-01T23:45:11.223Z,98.20
2017-08-01T23:47:38.740Z,97.70
2017-08-01T23:50:06.303Z,98.20
2017-08-01T23:52:33.827Z,98.80
2017-08-01T23:55:01.424Z,98.40
2017-08-01T23:57:28.955Z,98.80
2017-08-01T23:59:56.551Z,98.50
